Home > Products > Valid Products > TAF

000
FTUS44 KOHX 210200 AAA
TAFCSV
TAF AMD
KCSV 210226Z 2102/2124 24007KT P6SM SKC
     FM210500 30003KT P6SM SCT050
      TEMPO 2109/2112 4SM BR BKN050
     FM211500 32008KT P6SM BKN050=



000
FTUS44 KOHX 210200 AAA
TAFCKV
TAF AMD
KCKV 210225Z 2102/2124 22007KT P6SM SCT060 SCT100
     FM210700 32003KT P6SM SKC
      TEMPO 2109/2112 3SM BR
     FM211500 34008KT P6SM SCT040=



000
FTUS44 KOHX 210200 AAA
TAFBNA
TAF AMD
KBNA 210224Z 2102/2124 24004KT P6SM SCT060 SCT100
     FM210800 32003KT P6SM SKC
      TEMPO 2109/2112 5SM BR
     FM211500 33008KT P6SM SCT040=



000
FTUS44 KOHX 202300
TAFCSV
TAF
KCSV 202323Z 2100/2124 24007KT P6SM SCT100 SCT150
     FM210600 30003KT P6SM SCT050
      TEMPO 2109/2112 4SM BR BKN050
     FM211500 32008KT P6SM BKN050=



000
FTUS44 KOHX 202300
TAFBNA
TAF
KBNA 202323Z 2100/2124 24004KT P6SM FEW100
     FM210600 32003KT P6SM SKC
      TEMPO 2109/2112 5SM BR
     FM211500 33008KT P6SM SCT040=



000
FTUS44 KOHX 202300
TAFCKV
TAF
KCKV 202323Z 2100/2124 22007KT P6SM SKC
     FM210600 32003KT P6SM SKC
      TEMPO 2109/2112 3SM BR
     FM211500 34008KT P6SM SCT040=



000
FTUS44 KOHX 201700
TAFCKV
TAF
KCKV 201725Z 2018/2118 20007KT P6SM OVC100
     FM202300 27004KT P6SM SCT040
     FM210600 32003KT P6SM SKC
     FM211500 33008KT P6SM SCT040=



000
FTUS44 KOHX 201700
TAFCSV
TAF
KCSV 201725Z 2018/2118 24007KT P6SM SCT100 BKN150
     FM210000 27003KT P6SM SCT100 BKN150
     FM210600 30003KT P6SM BKN050
      TEMPO 2110/2112 4SM BR BKN050
     FM211500 32008KT P6SM BKN050=



000
FTUS44 KOHX 201700
TAFBNA
TAF
KBNA 201725Z 2018/2118 24006KT P6SM SCT100 BKN150
     FM210000 27004KT P6SM SCT040
     FM210600 32003KT P6SM SCT040
     FM211500 33008KT P6SM SCT040=



000
FTUS44 KOHX 201200 AAA
TAFCKV
TAF AMD
KCKV 201259Z 2013/2112 00000KT 6SM BR SKC
     FM201600 22007KT P6SM SCT050 BKN150
     FM210200 27003KT P6SM SKC
      TEMPO 2108/2112 2SM BR=



000
FTUS44 KOHX 201200 AAA
TAFBNA
TAF AMD
KBNA 201258Z 2013/2112 18004KT P6SM SCT150 SCT250
     FM201700 22006KT P6SM SCT050 BKN150=



000
FTUS44 KOHX 201100
TAFCKV
TAF
KCKV 201120Z 2012/2112 14004KT P6SM SCT150
      TEMPO 2012/2013 2SM BR
     FM201600 22007KT P6SM SCT050 BKN150
     FM210200 27003KT P6SM SKC
      TEMPO 2108/2112 2SM BR=



000
FTUS44 KOHX 201100
TAFCSV
TAF
KCSV 201120Z 2012/2112 25003KT P6SM SKC
     FM201500 23005KT P6SM SCT035 BKN150=



000
FTUS44 KOHX 201100
TAFBNA
TAF
KBNA 201120Z 2012/2112 00000KT P6SM SKC
      TEMPO 2012/2013 5SM BR
     FM201700 22006KT P6SM SCT050 BKN150=



000
FTUS44 KOHX 201100 AAA
TAFCSV
TAF AMD
KCSV 201116Z 2011/2106 25003KT P6SM SKC
     FM201500 25007KT P6SM SCT035 BKN150=



000
FTUS44 KOHX 200900 AAB
TAFCKV
TAF AMD
KCKV 200915Z 2009/2106 00000KT 6SM BR SKC
      TEMPO 2009/2012 2SM BR
     FM201500 24007KT P6SM SCT050 BKN150=



000
FTUS44 KOHX 200600 AAA
TAFCKV
TAF AMD
KCKV 200616Z 2006/2106 00000KT 4SM BR SKC
      TEMPO 2006/2010 1/4SM FG OVC002
     FM201500 24007KT P6SM SCT050 BKN150=



000
FTUS44 KOHX 200500
TAFBNA
TAF
KBNA 200520Z 2006/2106 18002KT P6SM SCT200
     FM201500 22006KT P6SM SCT050 BKN150=



000
FTUS44 KOHX 200500
TAFCKV
TAF
KCKV 200520Z 2006/2106 19002KT P6SM SCT200
     FM201000 00000KT 5SM BR SCT200
     FM201500 24007KT P6SM SCT050 BKN150=



000
FTUS44 KOHX 200500
TAFCSV
TAF
KCSV 200520Z 2006/2106 00000KT P6SM SCT150
     FM201000 00000KT 3SM BR SCT200
     FM201500 25007KT P6SM SCT035 BKN150=



000
FTUS44 KOHX 200200 AAB
TAFCSV
TAF AMD
KCSV 200234Z 2003/2024 00000KT P6SM SCT150
     FM201000 00000KT 3SM BR SCT200
     FM201500 25007KT P6SM SCT035 BKN150=



000
FTUS44 KOHX 200100 AAA
TAFCSV
TAF AMD
KCSV 200109Z 2001/2024 00000KT 5SM BR SCT150
     FM201000 00000KT 3SM BR SCT200
     FM201500 25007KT P6SM SCT035 BKN150=



000
FTUS44 KOHX 192300
TAFBNA
TAF
KBNA 192321Z 2000/2024 18002KT P6SM SCT200
     FM201500 22006KT P6SM SCT050 BKN150=



000
FTUS44 KOHX 192300
TAFCKV
TAF
KCKV 192321Z 2000/2024 19002KT P6SM SCT200
     FM201000 00000KT 5SM BR SCT200
     FM201500 24007KT P6SM SCT050 BKN150=



000
FTUS44 KOHX 192300
TAFCSV
TAF
KCSV 192321Z 2000/2024 09003KT P6SM SCT150
     FM201000 00000KT 5SM BR SCT200
     FM201500 25007KT P6SM SCT035 BKN150=



000
FTUS44 KOHX 192300
TAFCSV
TAF
KCSV 192321Z 2000/2024 09003KT P6SM SCT150
     FM201000 00000KT 5SM BR SCT200
     FM201500 25007KT P6SM SCT035 BKN150=



000
FTUS44 KOHX 192300
TAFBNA
TAF
KBNA 192321Z 2000/2024 18002KT P6SM SCT200
     FM201500 22006KT P6SM SCT050 BKN150=



000
FTUS44 KOHX 192300
TAFCKV
TAF
KCKV 192321Z 2000/2024 19002KT P6SM SCT200
     FM201000 00000KT 5SM BR SCT200
     FM201500 24007KT P6SM SCT050 BKN150=



000
FTUS44 KOHX 191700
TAFBNA
TAF
KBNA 191720Z 1918/2018 07006KT P6SM FEW025
     FM200000 18002KT P6SM SCT200=



000
FTUS44 KOHX 191700
TAFCKV
TAF
KCKV 191720Z 1918/2018 07007KT P6SM FEW025
     FM200000 19002KT P6SM SCT200
     FM201000 00000KT 5SM BR SCT200=



000
FTUS44 KOHX 191700
TAFCSV
TAF
KCSV 191720Z 1918/2018 09003KT P6SM FEW025
     FM201000 00000KT 5SM BR SCT200=



000
FTUS44 KOHX 191500 AAA
TAFCSV
TAF AMD
KCSV 191503Z 1915/2012 09006KT P6SM BKN015
     FM191600 09006KT P6SM SCT025
     FM200000 00000KT P6SM SKC=



000
FTUS44 KOHX 191400 AAA
TAFBNA
TAF AMD
KBNA 191414Z 1914/2012 06006KT P6SM SCT025
      TEMPO 1914/1916 BKN025
     FM200000 15002KT P6SM SCT250=



000
FTUS44 KOHX 191100
TAFBNA
TAF
KBNA 191134Z 1912/2012 01004KT P6SM SCT025
      TEMPO 1912/1914 BKN025
     FM191400 04006KT P6SM FEW050
     FM200000 15002KT P6SM SCT250=



000
FTUS44 KOHX 191100
TAFCSV
TAF
KCSV 191134Z 1912/2012 02007KT P6SM OVC017
      TEMPO 1912/1915 SCT020
     FM191500 03006KT P6SM BKN035
     FM200000 00000KT P6SM SKC=



000
FTUS44 KOHX 191100
TAFCKV
TAF
KCKV 191134Z 1912/2012 01004KT P6SM FEW025
     FM191400 05005KT P6SM FEW050
     FM200000 00000KT P6SM SCT250=



000
FTUS44 KOHX 191000 AAB
TAFCSV
TAF AMD
KCSV 191040Z 1911/2006 03006KT P6SM SCT017
      TEMPO 1911/1915 BKN020
     FM191500 03006KT P6SM BKN035
     FM200000 00000KT P6SM SKC=



000
FTUS44 KOHX 191000 AAB
TAFBNA
TAF AMD
KBNA 191039Z 1911/2006 33003KT P6SM SCT025
      TEMPO 1911/1914 BKN025
     FM191400 04006KT P6SM FEW050
     FM200000 15002KT P6SM SCT250=



000
FTUS44 KOHX 190900 AAA
TAFCSV
TAF AMD
KCSV 190959Z 1910/2006 02006KT P6SM OVC015
     FM191500 03006KT P6SM BKN035
     FM200000 00000KT P6SM SKC=



000
FTUS44 KOHX 190900 AAA
TAFCSV
TAF AMD
KCSV 190959Z 1910/2006 02006KT P6SM OVC015
     FM191500 03006KT P6SM BKN035
     FM200000 00000KT P6SM SKC=



000
FTUS44 KOHX 190900 AAA
TAFBNA
TAF AMD
KBNA 190958Z 1910/2006 34005KT P6SM OVC025
     FM191400 04006KT P6SM FEW050
     FM200000 15002KT P6SM SCT250=



000
FTUS44 KOHX 190900 AAA
TAFBNA
TAF AMD
KBNA 190958Z 1910/2006 34005KT P6SM OVC025
     FM191400 04006KT P6SM FEW050
     FM200000 15002KT P6SM SCT250=



000
FTUS44 KOHX 190500
TAFCKV
TAF
KCKV 190525Z 1906/2006 02004KT P6SM SCT040
     FM191400 05005KT P6SM FEW050
     FM200000 00000KT P6SM SCT250=



000
FTUS44 KOHX 190500
TAFBNA
TAF
KBNA 190525Z 1906/2006 02005KT P6SM SCT040
     FM191400 04006KT P6SM FEW050
     FM200000 15002KT P6SM SCT250=



000
FTUS44 KOHX 190500
TAFCSV
TAF
KCSV 190525Z 1906/2006 34006KT P6SM BKN025 BKN035
     FM191000 36004KT 5SM BR OVC025
     FM191500 03006KT P6SM BKN035
     FM200000 00000KT P6SM SKC=



000
FTUS44 KOHX 190300 AAB
TAFCSV
TAF AMD
KCSV 190355Z 1904/1924 34006KT P6SM BKN025
     FM190700 36004KT P6SM SCT040
     FM191200 03006KT P6SM SKC=



000
FTUS44 KOHX 190300 AAB
TAFCSV
TAF AMD
KCSV 190355Z 1904/1924 34006KT P6SM BKN025
     FM190700 36004KT P6SM SCT040
     FM191200 03006KT P6SM SKC=



000
FTUS44 KOHX 190100 AAA
TAFCSV
TAF AMD
KCSV 190111Z 1901/1924 34006KT P6SM BKN040
     FM190300 36004KT P6SM SCT010
     FM190600 36004KT P6SM SCT010
     FM191200 03006KT P6SM SKC=



000
FTUS44 KOHX 190000 CCA
TAFCSV
TAF COR
KCSV 190001Z 1900/1924 34006KT P6SM BKN025
     FM190300 36004KT P6SM SCT010
     FM190600 36004KT P6SM SCT010
     FM191200 03006KT P6SM SKC=



000
FTUS44 KOHX 182300
TAFCKV
TAF
KCKV 182333Z 1900/1924 36008KT P6SM BKN040
     FM190200 02004KT P6SM SCT040
     FM191200 05006KT P6SM SKC=



000
FTUS44 KOHX 182300
TAFBNA
TAF
KBNA 182333Z 1900/1924 01005KT P6SM SCT040
     FM191200 04006KT P6SM SKC=



000
FTUS44 KOHX 182300
TAFCSV
TAF
KCSV 182333Z 1900/1924 34006KT P6SM BKN040
     FM190600 36004KT P6SM SCT010
     FM191200 03006KT P6SM SKC=



000
FTUS44 KOHX 181900 AAA
TAFCKV
TAF AMD
KCKV 181912Z 1819/1918 34012G20KT P6SM BKN035
     FM190000 34004KT P6SM SCT030
     FM190200 35004KT P6SM SKC=



000
FTUS44 KOHX 181900 AAA
TAFBNA
TAF AMD
KBNA 181911Z 1819/1918 34012G18KT P6SM SCT030 BKN040
     FM190000 01005KT P6SM SCT040
     FM191200 04005KT P6SM SKC=



000
FTUS44 KOHX 181900 AAA
TAFCSV
TAF AMD
KCSV 181910Z 1819/1918 31010G17KT P6SM SCT025 BKN035
     FM182300 33005KT P6SM SCT035
     FM190600 36002KT P6SM SCT010
     FM191200 03003KT P6SM SKC=



000
FTUS44 KOHX 181700 RRA
TAFBNA
TAF
KBNA 181741Z 1818/1918 36009KT P6SM SCT030 BKN040
     FM190000 01005KT P6SM SCT040
     FM191200 04005KT P6SM SKC=



000
FTUS44 KOHX 181700 RRA
TAFCKV
TAF
KCKV 181741Z 1818/1918 31010KT P6SM BKN035
     FM190000 34004KT P6SM SCT030
     FM190200 35004KT P6SM SKC=



000
FTUS44 KOHX 181700 RRA
TAFCSV
TAF
KCSV 181741Z 1818/1918 27010KT P6SM SCT020 BKN030
     FM182300 33005KT P6SM SCT035
     FM190600 36002KT P6SM SCT010
     FM191200 03003KT P6SM SKC=



000
FTUS44 KOHX 181700 RRA
TAFBNA
TAF
KBNA 181741Z 1818/1918 36009KT P6SM SCT030 BKN040
     FM190000 01005KT P6SM SCT040
     FM191200 04005KT P6SM SKC=



000
FTUS44 KOHX 181700 RRA
TAFCKV
TAF
KCKV 181741Z 1818/1918 31010KT P6SM BKN035
     FM190000 34004KT P6SM SCT030
     FM190200 35004KT P6SM SKC=



000
FTUS44 KOHX 181700 RRA
TAFCSV
TAF
KCSV 181741Z 1818/1918 27010KT P6SM SCT020 BKN030
     FM182300 33005KT P6SM SCT035
     FM190600 36002KT P6SM SCT010
     FM191200 03003KT P6SM SKC=



000
FTUS44 KOHX 181500 AAA
TAFCSV
TAF AMD
KCSV 181518Z 1815/1912 27010KT P6SM SCT015 BKN030
     FM182300 33005KT P6SM SCT035
     FM190300 00000KT P6SM SKC=



000
FTUS44 KOHX 181100
TAFCSV
TAF
KCSV 181120Z 1812/1912 29004KT P6SM SKC
     FM181500 32010KT P6SM BKN040
     FM182300 33005KT P6SM SCT035
     FM190300 00000KT P6SM SKC=



000
FTUS44 KOHX 181100
TAFCKV
TAF
KCKV 181120Z 1812/1912 26007KT P6SM SKC
     FM181400 31010KT P6SM BKN050
     FM182300 34005KT P6SM SCT040
     FM190200 35004KT P6SM SKC=



000
FTUS44 KOHX 181100
TAFBNA
TAF
KBNA 181120Z 1812/1912 31004KT P6SM SKC
     FM181500 33009KT P6SM BKN050
     FM182300 35006KT P6SM SCT040
     FM190300 36005KT P6SM SKC=



000
FTUS44 KOHX 181100
TAFBNA
TAF
KBNA 181120Z 1812/1912 31004KT P6SM SKC
     FM181500 33009KT P6SM BKN050
     FM182300 35006KT P6SM SCT040
     FM190300 36005KT P6SM SKC=



000
FTUS44 KOHX 181100
TAFCSV
TAF
KCSV 181120Z 1812/1912 29004KT P6SM SKC
     FM181500 32010KT P6SM BKN040
     FM182300 33005KT P6SM SCT035
     FM190300 00000KT P6SM SKC=



000
FTUS44 KOHX 181100
TAFCKV
TAF
KCKV 181120Z 1812/1912 26007KT P6SM SKC
     FM181400 31010KT P6SM BKN050
     FM182300 34005KT P6SM SCT040
     FM190200 35004KT P6SM SKC=



000
FTUS44 KOHX 180500
TAFCSV
TAF
KCSV 180527Z 1806/1906 24003KT P6SM SKC
     FM181500 32010KT P6SM BKN035
     FM182300 33005KT P6SM SCT035=



000
FTUS44 KOHX 180500
TAFBNA
TAF
KBNA 180527Z 1806/1906 33008KT P6SM SKC
     FM181500 34010KT P6SM BKN040
     FM182300 35005KT P6SM SCT040=



000
FTUS44 KOHX 180500
TAFCKV
TAF
KCKV 180527Z 1806/1906 33007KT P6SM SKC
     FM181400 32010KT P6SM BKN040
     FM182300 35005KT P6SM SCT040=



    US Dept of Commerce
    National Oceanic and Atmospheric Administration
    National Weather Service
    1325 East West Highway
    Silver Spring, MD 20910
    Page Author: NWS Internet Services Team
Disclaimer
Information Quality
Credits
Glossary
Privacy Policy
Freedom of Information Act (FOIA)
About Us
Career Opportunities